地図

経路データ

SID SEASON NUMBER BASIN SUBBASIN NAME ISO_TIME NATURE LAT LON WMO_WIND WMO_PRES WMO_AGENCY TRACK_TYPE DIST2LAND LANDFALL IFLAG USA_AGENCY USA_ATCF_ID USA_LAT USA_LON USA_RECORD USA_STATUS USA_WIND USA_PRES USA_SSHS USA_R34_NE USA_R34_SE USA_R34_SW USA_R34_NW USA_R50_NE USA_R50_SE USA_R50_SW USA_R50_NW USA_R64_NE USA_R64_SE USA_R64_SW USA_R64_NW USA_POCI USA_ROCI USA_RMW USA_EYE TOKYO_LAT TOKYO_LON TOKYO_GRADE TOKYO_WIND TOKYO_PRES TOKYO_R50_DIR TOKYO_R50_LONG TOKYO_R50_SHORT TOKYO_R30_DIR TOKYO_R30_LONG TOKYO_R30_SHORT TOKYO_LAND CMA_LAT CMA_LON CMA_CAT CMA_WIND CMA_PRES HKO_LAT HKO_LON HKO_CAT HKO_WIND HKO_PRES NEWDELHI_LAT NEWDELHI_LON NEWDELHI_GRADE NEWDELHI_WIND NEWDELHI_PRES NEWDELHI_CI NEWDELHI_DP NEWDELHI_POCI REUNION_LAT REUNION_LON REUNION_TYPE REUNION_WIND REUNION_PRES REUNION_TNUM REUNION_CI REUNION_RMW REUNION_R34_NE REUNION_R34_SE REUNION_R34_SW REUNION_R34_NW REUNION_R50_NE REUNION_R50_SE REUNION_R50_SW REUNION_R50_NW REUNION_R64_NE REUNION_R64_SE REUNION_R64_SW REUNION_R64_NW BOM_LAT BOM_LON BOM_TYPE BOM_WIND BOM_PRES BOM_TNUM BOM_CI BOM_RMW BOM_R34_NE BOM_R34_SE BOM_R34_SW BOM_R34_NW BOM_R50_NE BOM_R50_SE BOM_R50_SW BOM_R50_NW BOM_R64_NE BOM_R64_SE BOM_R64_SW BOM_R64_NW BOM_ROCI BOM_POCI BOM_EYE BOM_POS_METHOD BOM_PRES_METHOD NADI_LAT NADI_LON NADI_CAT NADI_WIND NADI_PRES WELLINGTON_LAT WELLINGTON_LON WELLINGTON_WIND WELLINGTON_PRES DS824_LAT DS824_LON DS824_STAGE DS824_WIND DS824_PRES TD9636_LAT TD9636_LON TD9636_STAGE TD9636_WIND TD9636_PRES TD9635_LAT TD9635_LON TD9635_WIND TD9635_PRES TD9635_ROCI NEUMANN_LAT NEUMANN_LON NEUMANN_CLASS NEUMANN_WIND NEUMANN_PRES MLC_LAT MLC_LON MLC_CLASS MLC_WIND MLC_PRES USA_GUST BOM_GUST BOM_GUST_PER REUNION_GUST REUNION_GUST_PER USA_SEAHGT USA_SEARAD_NE USA_SEARAD_SE USA_SEARAD_SW USA_SEARAD_NW STORM_SPEED STORM_DIR
2020017S14178 2020 3 SP MM TINO 2020-01-16 18:00:00 NR -13.7000 177.800 PROVISIONAL 338 246 O_____________ tcvitals SP082020 -13.7000 177.800 39 983 0 290 130 90 360 995 260 50 18 142
2020017S14178 2020 3 SP MM TINO 2020-01-16 21:00:00 NR -14.3856 178.361 PROVISIONAL 243 173 P_____________ SP082020 -14.3856 178.361 42 982 0 292 120 75 339 995 260 47 15 141
2020017S14178 2020 3 SP MM TINO 2020-01-17 00:00:00 NR -14.9000 178.800 PROVISIONAL 173 144 O_____________ tcvitals SP082020 -14.9000 178.800 45 982 0 295 110 60 319 995 260 45 10 138
2020017S14178 2020 3 SP MM TINO 2020-01-17 03:00:00 NR -15.1444 179.063 PROVISIONAL 140 109 P_____________ SP082020 -15.1444 179.063 49 978 0 322 137 77 329 994 255 29 7 125
2020017S14178 2020 3 SP MM TINO 2020-01-17 06:00:00 NR -15.3000 179.400 PROVISIONAL 109 79 O_____________ tcvitals SP082020 -15.3000 179.400 54 974 0 350 165 95 340 994 250 14 10 109
2020017S14178 2020 3 SP MM TINO 2020-01-17 09:00:00 NR -15.4802 180.069 PROVISIONAL 81 79 P_____________ SP082020 -15.4802 -179.931 59 972 0 340 167 97 362 995 245 14 16 113
2020017S14178 2020 3 SP MM TINO 2020-01-17 12:00:00 NR -15.9000 180.900 PROVISIONAL 112 112 O_____________ tcvitals SP082020 -15.9000 -179.100 64 970 1 330 170 100 385 996 240 14 21 130
2020017S14178 2020 3 SP MM TINO 2020-01-17 15:00:00 NR -16.8554 181.778 PROVISIONAL 202 202 P_____________ SP082020 -16.8554 -178.222 67 968 1 337 185 100 395 995 215 14 26 141
2020017S14178 2020 3 SP MM TINO 2020-01-17 18:00:00 NR -17.9000 182.600 PROVISIONAL 311 311 O_____________ tcvitals SP082020 -17.9000 -177.400 70 966 1 345 200 100 405 994 190 14 22 142
2020017S14178 2020 3 SP MM TINO 2020-01-17 21:00:00 NR -18.5742 183.182 PROVISIONAL 403 403 P_____________ SP082020 -18.5742 -176.818 70 966 1 345 212 85 365 994 202 24 16 139
2020017S14178 2020 3 SP MM TINO 2020-01-18 00:00:00 NR -19.1000 183.700 PROVISIONAL 477 477 O_____________ tcvitals SP082020 -19.1000 -176.300 70 967 1 345 225 70 325 995 215 35 15 134
2020017S14178 2020 3 SP MM TINO 2020-01-18 03:00:00 NR -19.5919 184.291 PROVISIONAL 560 560 P_____________ SP082020 -19.5919 -175.709 70 967 1 222 232 87 337 995 217 35 16 129
2020017S14178 2020 3 SP MM TINO 2020-01-18 06:00:00 NR -20.1000 185.000 PROVISIONAL 652 652 O_____________ tcvitals SP082020 -20.1000 -175.000 70 968 1 100 240 105 350 995 220 35 19 126
2020017S14178 2020 3 SP MM TINO 2020-01-18 09:00:00 NR -20.7055 185.928 PROVISIONAL 767 767 P_____________ SP082020 -20.7055 -174.072 67 969 1 175 220 125 275 995 220 32 22 126
2020017S14178 2020 3 SP MM TINO 2020-01-18 12:00:00 NR -21.4000 186.900 PROVISIONAL 852 852 O_____________ tcvitals SP082020 -21.4000 -173.100 64 971 1 250 200 145 200 996 220 30 22 131
2020017S14178 2020 3 SP MM TINO 2020-01-18 15:00:00 NR -22.1390 187.702 PROVISIONAL 928 928 P_____________ SP082020 -22.1390 -172.298 62 969 0 262 232 160 252 995 207 30 22 137
2020017S14178 2020 3 SP MM TINO 2020-01-18 18:00:00 NR -23.0000 188.500 PROVISIONAL 1031 1031 O_____________ tcvitals SP082020 -23.0000 -171.500 60 968 0 275 265 175 305 994 195 30 24 140
2020017S14178 2020 3 SP MM TINO 2020-01-18 21:00:00 NR -23.9744 189.400 PROVISIONAL 1153 1153 P_____________ SP082020 -23.9744 -170.600 57 968 0 285 270 160 300 994 205 30 27 140
2020017S14178 2020 3 SP MM TINO 2020-01-19 00:00:00 NR -25.1000 190.400 PROVISIONAL 1292 1292 O_____________ tcvitals SP082020 -25.1000 -169.600 54 968 0 295 275 145 295 994 215 30 31 141
2020017S14178 2020 3 SP MM TINO 2020-01-19 03:00:00 NR -26.3646 191.511 PROVISIONAL 1460 1460 P_____________ SP082020 -26.3646 -168.489 54 966 0 310 282 170 302 993 222 30 33 142
2020017S14178 2020 3 SP MM TINO 2020-01-19 06:00:00 NR -27.7000 192.700 PROVISIONAL 1635 O_____________ tcvitals SP082020 -27.7000 -167.300 54 964 0 325 290 195 310 992 230 30 34 142

デジタル台風データ・検索

IBTrACS Databaseについて

本データベースは、米国NOAAが公開する1842年以降の世界の熱帯低気圧のベストトラックデータアーカイブInternational Best Track Archive for Climate Stewardship (IBTrACS)を、ウェブで閲覧しやすい形式に変換したものです。

最終更新日:2021-11-26